Pagina principale
METAR-TAF:

METAR-TAF

Aeroporti :

Qurayyat, Arabia Saudita

latitudine: 31-24N, longitudine: 037-16E, altezza: 509 m

Osservazione

Il bollettino è stato emesso 22 minuti fa, alle 06:00 UTC
Vento 18 kt da ovest
Temperature 29°C
Umidità 20%
Pressione 1010 hPa
Visibilità 10 km o più
nessuna nube inferiore a 1500 m e nessun cumulonembo

METAR: OEGT 270600Z 28018KT CAVOK 29/04 Q1010 NOSIG

Ora: 09:22 (06:22 UTC)

Previsione

Il bollettino è stato emesso 7 ore e 22 minuti fa, alle 23:00 UTC
Previsione valida dal 27 alle 00 UTC al 28 alle 06 UTC
Vento 15 kt da nord/nord-ovest
Visibilità: 7000 m
Temporaneamente
dal 27 alle 00 UTC al 27 alle 12 UTC
Visibilità: 3500 m
Scaccia polvere alto

TAF: OEGT 262300Z 2700/2806 34015KT 7000 NSC TEMPO 2700/2712 3500 BLDU

Osservazioni e previsioni meteorologiche di più di 4000 aeroporti (messaggi METAR e TAF).

Le stazioni disponibili sono rappresentate dai dischi gialli e rossi sulla carta.

Puntare il mouse per vedere il nome della stazione.

Clicca sopra per visualizzare le osservazioni e previsioni meteorologiche.

Per cambiare la mappa : fare clic sui pulsanti verdi con una croce nera per ingrandire, il pulsante verde con un trattino per diminuire, o sulla freccia verde per le mappe adiacenti.


METAR-TAF: